Terminal Aerodrome Forecast
Issued by NWS Wilmington, OH

Current Version | Previous Version | Text Only | Print | Product List | Glossary Off
Versions: 1 2 3 4 5 6 7 8 9 10 11 12 13 14 15 16 17 18 19

000
FTUS41 KILN 241100
TAFILN
TAF
KILN 241137Z 2412/2512 04010KT P6SM SCT015 OVC040
     FM241400 06008KT P6SM BKN040
     FM242300 07008KT P6SM VCSH BKN035
     FM250200 13010KT P6SM VCSH OVC040
     FM250900 19013G23KT 4SM -SHRA SCT025 OVC035=

USA.gov is the U.S. government's official web portal to all federal, state and local government web resources and services.